sensor_id;sensor_type;location;lat;lon;timestamp;P1;durP1;ratioP1;P2;durP2;ratioP2
31537;SDS011;18147;51.952;6.146;2023-07-24T00:00:13;5.88;;;5.25;;
31537;SDS011;18147;51.952;6.146;2023-07-24T00:02:44;7.63;;;6.43;;
31537;SDS011;18147;51.952;6.146;2023-07-24T00:05:13;6.63;;;6.03;;
31537;SDS011;18147;51.952;6.146;2023-07-24T00:07:38;9.73;;;6.60;;
31537;SDS011;18147;51.952;6.146;2023-07-24T00:10:08;8.45;;;6.93;;
31537;SDS011;18147;51.952;6.146;2023-07-24T00:12:34;8.40;;;6.20;;
31537;SDS011;18147;51.952;6.146;2023-07-24T00:15:02;6.85;;;6.15;;
31537;SDS011;18147;51.952;6.146;2023-07-24T00:17:28;7.15;;;6.05;;
31537;SDS011;18147;51.952;6.146;2023-07-24T00:19:53;6.32;;;5.72;;
31537;SDS011;18147;51.952;6.146;2023-07-24T00:22:19;7.55;;;5.47;;
31537;SDS011;18147;51.952;6.146;2023-07-24T00:24:44;8.18;;;5.95;;
31537;SDS011;18147;51.952;6.146;2023-07-24T00:27:10;7.75;;;5.90;;
31537;SDS011;18147;51.952;6.146;2023-07-24T00:29:42;5.75;;;5.10;;
31537;SDS011;18147;51.952;6.146;2023-07-24T00:32:11;8.20;;;6.13;;
31537;SDS011;18147;51.952;6.146;2023-07-24T00:34:41;10.55;;;6.13;;
31537;SDS011;18147;51.952;6.146;2023-07-24T00:37:16;8.00;;;5.82;;
31537;SDS011;18147;51.952;6.146;2023-07-24T00:39:42;6.68;;;5.70;;
31537;SDS011;18147;51.952;6.146;2023-07-24T00:42:14;6.95;;;5.85;;
31537;SDS011;18147;51.952;6.146;2023-07-24T00:44:43;8.07;;;5.70;;
31537;SDS011;18147;51.952;6.146;2023-07-24T00:47:08;7.47;;;6.32;;
31537;SDS011;18147;51.952;6.146;2023-07-24T00:49:38;9.05;;;5.28;;
31537;SDS011;18147;51.952;6.146;2023-07-24T00:52:04;7.80;;;5.82;;
31537;SDS011;18147;51.952;6.146;2023-07-24T00:54:30;8.52;;;6.40;;
31537;SDS011;18147;51.952;6.146;2023-07-24T00:57:06;7.90;;;5.05;;
31537;SDS011;18147;51.952;6.146;2023-07-24T00:59:34;7.35;;;5.47;;
31537;SDS011;18147;51.952;6.146;2023-07-24T01:02:01;11.02;;;6.10;;
31537;SDS011;18147;51.952;6.146;2023-07-24T01:04:26;6.53;;;5.10;;
31537;SDS011;18147;51.952;6.146;2023-07-24T01:06:52;6.72;;;5.57;;
31537;SDS011;18147;51.952;6.146;2023-07-24T01:09:18;7.00;;;6.13;;
31537;SDS011;18147;51.952;6.146;2023-07-24T01:11:46;8.25;;;6.95;;
31537;SDS011;18147;51.952;6.146;2023-07-24T01:16:53;11.23;;;7.07;;
31537;SDS011;18147;51.952;6.146;2023-07-24T01:19:36;8.98;;;6.65;;
31537;SDS011;18147;51.952;6.146;2023-07-24T01:25:31;10.55;;;7.32;;
31537;SDS011;18147;51.952;6.146;2023-07-24T01:27:56;10.43;;;6.88;;
31537;SDS011;18147;51.952;6.146;2023-07-24T01:30:22;10.32;;;6.80;;
31537;SDS011;18147;51.952;6.146;2023-07-24T01:32:48;8.25;;;7.10;;
31537;SDS011;18147;51.952;6.146;2023-07-24T01:35:15;13.00;;;6.95;;
31537;SDS011;18147;51.952;6.146;2023-07-24T01:37:42;7.75;;;6.70;;
31537;SDS011;18147;51.952;6.146;2023-07-24T01:40:16;8.50;;;7.07;;
31537;SDS011;18147;51.952;6.146;2023-07-24T01:42:42;8.30;;;6.72;;
31537;SDS011;18147;51.952;6.146;2023-07-24T01:45:09;10.35;;;7.53;;
31537;SDS011;18147;51.952;6.146;2023-07-24T01:47:38;10.50;;;7.30;;
31537;SDS011;18147;51.952;6.146;2023-07-24T01:50:13;12.25;;;7.72;;
31537;SDS011;18147;51.952;6.146;2023-07-24T01:52:44;10.93;;;7.50;;
31537;SDS011;18147;51.952;6.146;2023-07-24T01:55:13;10.93;;;7.55;;
31537;SDS011;18147;51.952;6.146;2023-07-24T01:57:41;12.15;;;9.38;;
31537;SDS011;18147;51.952;6.146;2023-07-24T02:00:12;14.52;;;12.25;;
31537;SDS011;18147;51.952;6.146;2023-07-24T02:02:38;18.58;;;14.63;;
31537;SDS011;18147;51.952;6.146;2023-07-24T02:05:03;17.48;;;14.85;;
31537;SDS011;18147;51.952;6.146;2023-07-24T02:07:32;20.98;;;15.07;;
31537;SDS011;18147;51.952;6.146;2023-07-24T02:09:57;14.52;;;11.63;;
31537;SDS011;18147;51.952;6.146;2023-07-24T02:12:23;14.93;;;13.25;;
31537;SDS011;18147;51.952;6.146;2023-07-24T02:14:49;15.85;;;14.10;;
31537;SDS011;18147;51.952;6.146;2023-07-24T02:17:17;18.05;;;13.10;;
31537;SDS011;18147;51.952;6.146;2023-07-24T02:19:43;17.05;;;13.10;;
31537;SDS011;18147;51.952;6.146;2023-07-24T02:22:09;15.20;;;13.45;;
31537;SDS011;18147;51.952;6.146;2023-07-24T02:24:38;14.77;;;12.95;;
31537;SDS011;18147;51.952;6.146;2023-07-24T02:27:04;14.45;;;11.18;;
31537;SDS011;18147;51.952;6.146;2023-07-24T02:29:30;16.17;;;12.07;;
31537;SDS011;18147;51.952;6.146;2023-07-24T02:31:56;13.35;;;11.07;;
31537;SDS011;18147;51.952;6.146;2023-07-24T02:34:23;14.35;;;10.27;;
31537;SDS011;18147;51.952;6.146;2023-07-24T02:36:51;13.32;;;9.45;;
31537;SDS011;18147;51.952;6.146;2023-07-24T02:39:18;13.27;;;9.18;;
31537;SDS011;18147;51.952;6.146;2023-07-24T02:41:44;14.48;;;9.23;;
31537;SDS011;18147;51.952;6.146;2023-07-24T02:44:11;14.10;;;8.55;;
31537;SDS011;18147;51.952;6.146;2023-07-24T02:46:45;10.38;;;8.55;;
31537;SDS011;18147;51.952;6.146;2023-07-24T02:49:14;16.10;;;9.57;;
31537;SDS011;18147;51.952;6.146;2023-07-24T02:51:46;15.82;;;9.10;;
31537;SDS011;18147;51.952;6.146;2023-07-24T02:54:12;15.90;;;8.73;;
31537;SDS011;18147;51.952;6.146;2023-07-24T02:56:41;18.17;;;10.13;;
31537;SDS011;18147;51.952;6.146;2023-07-24T02:59:10;15.77;;;9.20;;
31537;SDS011;18147;51.952;6.146;2023-07-24T03:01:43;15.82;;;10.25;;
31537;SDS011;18147;51.952;6.146;2023-07-24T03:04:08;11.98;;;9.00;;
31537;SDS011;18147;51.952;6.146;2023-07-24T03:06:34;16.77;;;10.27;;
31537;SDS011;18147;51.952;6.146;2023-07-24T03:09:00;15.13;;;10.18;;
31537;SDS011;18147;51.952;6.146;2023-07-24T03:11:26;16.55;;;10.95;;
31537;SDS011;18147;51.952;6.146;2023-07-24T03:13:52;18.95;;;12.02;;
31537;SDS011;18147;51.952;6.146;2023-07-24T03:16:17;19.40;;;12.07;;
31537;SDS011;18147;51.952;6.146;2023-07-24T03:18:44;19.10;;;11.63;;
31537;SDS011;18147;51.952;6.146;2023-07-24T03:21:13;14.25;;;10.90;;
31537;SDS011;18147;51.952;6.146;2023-07-24T03:23:47;18.77;;;12.05;;
31537;SDS011;18147;51.952;6.146;2023-07-24T03:26:12;17.60;;;11.77;;
31537;SDS011;18147;51.952;6.146;2023-07-24T03:28:38;21.00;;;12.23;;
31537;SDS011;18147;51.952;6.146;2023-07-24T03:31:04;18.58;;;11.90;;
31537;SDS011;18147;51.952;6.146;2023-07-24T03:33:29;19.35;;;11.70;;
31537;SDS011;18147;51.952;6.146;2023-07-24T03:35:55;20.63;;;12.80;;
31537;SDS011;18147;51.952;6.146;2023-07-24T03:38:21;20.27;;;11.80;;
31537;SDS011;18147;51.952;6.146;2023-07-24T03:40:46;18.90;;;13.20;;
31537;SDS011;18147;51.952;6.146;2023-07-24T03:43:12;17.20;;;12.90;;
31537;SDS011;18147;51.952;6.146;2023-07-24T03:45:38;20.23;;;14.13;;
31537;SDS011;18147;51.952;6.146;2023-07-24T03:48:04;16.80;;;13.68;;
31537;SDS011;18147;51.952;6.146;2023-07-24T03:50:29;23.17;;;14.98;;
31537;SDS011;18147;51.952;6.146;2023-07-24T03:52:55;21.70;;;14.40;;
31537;SDS011;18147;51.952;6.146;2023-07-24T03:55:21;18.63;;;13.60;;
31537;SDS011;18147;51.952;6.146;2023-07-24T03:57:47;21.63;;;13.27;;
31537;SDS011;18147;51.952;6.146;2023-07-24T04:00:15;19.98;;;12.25;;
31537;SDS011;18147;51.952;6.146;2023-07-24T04:02:42;20.30;;;11.82;;
31537;SDS011;18147;51.952;6.146;2023-07-24T04:05:08;18.13;;;11.80;;
31537;SDS011;18147;51.952;6.146;2023-07-24T04:07:34;16.17;;;10.50;;
31537;SDS011;18147;51.952;6.146;2023-07-24T04:10:00;15.05;;;9.00;;
31537;SDS011;18147;51.952;6.146;2023-07-24T04:12:25;15.25;;;9.52;;
31537;SDS011;18147;51.952;6.146;2023-07-24T04:14:51;12.25;;;7.85;;
31537;SDS011;18147;51.952;6.146;2023-07-24T04:17:16;11.80;;;8.05;;
31537;SDS011;18147;51.952;6.146;2023-07-24T04:19:44;12.55;;;8.27;;
31537;SDS011;18147;51.952;6.146;2023-07-24T04:22:19;11.18;;;8.32;;
31537;SDS011;18147;51.952;6.146;2023-07-24T04:24:44;14.52;;;7.05;;
31537;SDS011;18147;51.952;6.146;2023-07-24T04:27:12;9.35;;;7.00;;
31537;SDS011;18147;51.952;6.146;2023-07-24T04:29:42;7.13;;;6.43;;
31537;SDS011;18147;51.952;6.146;2023-07-24T04:32:18;7.32;;;6.57;;
31537;SDS011;18147;51.952;6.146;2023-07-24T04:34:43;5.90;;;5.30;;
31537;SDS011;18147;51.952;6.146;2023-07-24T04:37:09;10.43;;;6.13;;
31537;SDS011;18147;51.952;6.146;2023-07-24T04:39:37;9.23;;;6.55;;
31537;SDS011;18147;51.952;6.146;2023-07-24T04:42:13;9.43;;;6.45;;
31537;SDS011;18147;51.952;6.146;2023-07-24T04:44:45;8.45;;;6.57;;
31537;SDS011;18147;51.952;6.146;2023-07-24T04:47:16;6.90;;;5.93;;
31537;SDS011;18147;51.952;6.146;2023-07-24T04:49:45;7.32;;;6.03;;
31537;SDS011;18147;51.952;6.146;2023-07-24T04:52:17;6.78;;;5.97;;
31537;SDS011;18147;51.952;6.146;2023-07-24T04:54:42;9.63;;;6.43;;
31537;SDS011;18147;51.952;6.146;2023-07-24T04:57:08;7.18;;;6.38;;
31537;SDS011;18147;51.952;6.146;2023-07-24T04:59:34;8.82;;;6.72;;
31537;SDS011;18147;51.952;6.146;2023-07-24T05:02:00;8.73;;;6.68;;
31537;SDS011;18147;51.952;6.146;2023-07-24T05:04:25;8.57;;;7.60;;
31537;SDS011;18147;51.952;6.146;2023-07-24T05:06:51;9.93;;;7.55;;
31537;SDS011;18147;51.952;6.146;2023-07-24T05:09:16;12.30;;;8.45;;
31537;SDS011;18147;51.952;6.146;2023-07-24T05:11:45;10.88;;;8.18;;
31537;SDS011;18147;51.952;6.146;2023-07-24T05:14:11;11.40;;;8.15;;
31537;SDS011;18147;51.952;6.146;2023-07-24T05:16:42;11.10;;;8.05;;
31537;SDS011;18147;51.952;6.146;2023-07-24T05:19:13;10.60;;;7.78;;
31537;SDS011;18147;51.952;6.146;2023-07-24T05:21:38;11.95;;;8.60;;
31537;SDS011;18147;51.952;6.146;2023-07-24T05:24:10;12.48;;;7.93;;
31537;SDS011;18147;51.952;6.146;2023-07-24T05:26:38;11.20;;;7.70;;
31537;SDS011;18147;51.952;6.146;2023-07-24T05:29:03;12.77;;;8.65;;
31537;SDS011;18147;51.952;6.146;2023-07-24T05:31:29;10.98;;;7.90;;
31537;SDS011;18147;51.952;6.146;2023-07-24T05:33:54;10.05;;;8.23;;
31537;SDS011;18147;51.952;6.146;2023-07-24T05:36:20;12.63;;;8.45;;
31537;SDS011;18147;51.952;6.146;2023-07-24T05:38:46;12.00;;;7.22;;
31537;SDS011;18147;51.952;6.146;2023-07-24T05:41:14;11.75;;;8.63;;
31537;SDS011;18147;51.952;6.146;2023-07-24T05:43:46;11.23;;;8.45;;
31537;SDS011;18147;51.952;6.146;2023-07-24T05:46:14;16.48;;;8.65;;
31537;SDS011;18147;51.952;6.146;2023-07-24T05:48:43;11.07;;;8.82;;
31537;SDS011;18147;51.952;6.146;2023-07-24T05:51:09;13.18;;;8.80;;
31537;SDS011;18147;51.952;6.146;2023-07-24T05:53:44;17.05;;;8.98;;
31537;SDS011;18147;51.952;6.146;2023-07-24T05:56:10;12.55;;;9.02;;
31537;SDS011;18147;51.952;6.146;2023-07-24T05:58:43;12.02;;;8.98;;
31537;SDS011;18147;51.952;6.146;2023-07-24T06:01:09;9.85;;;8.48;;
31537;SDS011;18147;51.952;6.146;2023-07-24T06:03:43;13.55;;;9.27;;
31537;SDS011;18147;51.952;6.146;2023-07-24T06:06:15;14.73;;;9.57;;
31537;SDS011;18147;51.952;6.146;2023-07-24T06:08:43;10.10;;;8.40;;
31537;SDS011;18147;51.952;6.146;2023-07-24T06:11:20;10.70;;;8.70;;
31537;SDS011;18147;51.952;6.146;2023-07-24T06:13:46;11.55;;;9.55;;
31537;SDS011;18147;51.952;6.146;2023-07-24T06:16:16;14.55;;;10.02;;
31537;SDS011;18147;51.952;6.146;2023-07-24T06:18:45;15.75;;;11.43;;
31537;SDS011;18147;51.952;6.146;2023-07-24T06:21:10;15.13;;;11.73;;
31537;SDS011;18147;51.952;6.146;2023-07-24T06:23:46;15.30;;;11.50;;
31537;SDS011;18147;51.952;6.146;2023-07-24T06:26:17;13.80;;;11.07;;
31537;SDS011;18147;51.952;6.146;2023-07-24T06:28:46;16.77;;;12.25;;
31537;SDS011;18147;51.952;6.146;2023-07-24T06:31:14;15.27;;;12.15;;
31537;SDS011;18147;51.952;6.146;2023-07-24T06:33:44;15.85;;;12.52;;
31537;SDS011;18147;51.952;6.146;2023-07-24T06:36:13;15.82;;;12.45;;
31537;SDS011;18147;51.952;6.146;2023-07-24T06:38:44;19.57;;;11.90;;
31537;SDS011;18147;51.952;6.146;2023-07-24T06:41:13;19.60;;;13.05;;
31537;SDS011;18147;51.952;6.146;2023-07-24T06:43:45;16.88;;;11.68;;
31537;SDS011;18147;51.952;6.146;2023-07-24T06:46:12;15.55;;;11.48;;
31537;SDS011;18147;51.952;6.146;2023-07-24T06:48:46;16.35;;;12.23;;
31537;SDS011;18147;51.952;6.146;2023-07-24T06:51:13;13.77;;;11.00;;
31537;SDS011;18147;51.952;6.146;2023-07-24T06:53:43;18.58;;;12.13;;
31537;SDS011;18147;51.952;6.146;2023-07-24T06:56:08;21.38;;;12.68;;
31537;SDS011;18147;51.952;6.146;2023-07-24T06:58:34;16.10;;;12.57;;
31537;SDS011;18147;51.952;6.146;2023-07-24T07:01:06;14.77;;;12.00;;
31537;SDS011;18147;51.952;6.146;2023-07-24T07:03:32;14.48;;;12.45;;
31537;SDS011;18147;51.952;6.146;2023-07-24T07:06:00;18.92;;;13.65;;
31537;SDS011;18147;51.952;6.146;2023-07-24T07:08:26;18.25;;;13.18;;
31537;SDS011;18147;51.952;6.146;2023-07-24T07:10:56;16.45;;;12.20;;
31537;SDS011;18147;51.952;6.146;2023-07-24T07:13:22;15.25;;;12.60;;
31537;SDS011;18147;51.952;6.146;2023-07-24T07:15:47;17.60;;;12.35;;
31537;SDS011;18147;51.952;6.146;2023-07-24T07:18:13;16.08;;;12.68;;
31537;SDS011;18147;51.952;6.146;2023-07-24T07:20:39;15.85;;;12.50;;
31537;SDS011;18147;51.952;6.146;2023-07-24T07:23:11;14.80;;;12.68;;
31537;SDS011;18147;51.952;6.146;2023-07-24T07:25:43;17.50;;;12.43;;
31537;SDS011;18147;51.952;6.146;2023-07-24T07:28:13;16.75;;;12.93;;
31537;SDS011;18147;51.952;6.146;2023-07-24T07:30:41;15.48;;;13.88;;
31537;SDS011;18147;51.952;6.146;2023-07-24T07:33:10;16.95;;;13.98;;
31537;SDS011;18147;51.952;6.146;2023-07-24T07:35:38;15.48;;;12.93;;
31537;SDS011;18147;51.952;6.146;2023-07-24T07:38:03;15.75;;;12.88;;
31537;SDS011;18147;51.952;6.146;2023-07-24T07:40:29;15.93;;;12.18;;
31537;SDS011;18147;51.952;6.146;2023-07-24T07:42:55;13.15;;;11.75;;
31537;SDS011;18147;51.952;6.146;2023-07-24T07:45:22;18.33;;;12.40;;
31537;SDS011;18147;51.952;6.146;2023-07-24T07:47:48;15.23;;;12.40;;
31537;SDS011;18147;51.952;6.146;2023-07-24T07:50:14;14.85;;;11.23;;
31537;SDS011;18147;51.952;6.146;2023-07-24T07:52:40;16.10;;;12.55;;
31537;SDS011;18147;51.952;6.146;2023-07-24T07:55:07;17.00;;;11.95;;
31537;SDS011;18147;51.952;6.146;2023-07-24T07:57:36;17.52;;;12.95;;
31537;SDS011;18147;51.952;6.146;2023-07-24T08:00:03;18.10;;;14.10;;
31537;SDS011;18147;51.952;6.146;2023-07-24T08:02:31;16.33;;;13.07;;
31537;SDS011;18147;51.952;6.146;2023-07-24T08:04:57;17.58;;;14.32;;
31537;SDS011;18147;51.952;6.146;2023-07-24T08:07:23;20.17;;;15.40;;
31537;SDS011;18147;51.952;6.146;2023-07-24T08:09:48;16.13;;;13.65;;
31537;SDS011;18147;51.952;6.146;2023-07-24T08:12:14;20.33;;;15.57;;
31537;SDS011;18147;51.952;6.146;2023-07-24T08:14:41;23.98;;;16.48;;
31537;SDS011;18147;51.952;6.146;2023-07-24T08:17:10;18.65;;;14.85;;
31537;SDS011;18147;51.952;6.146;2023-07-24T08:19:37;19.90;;;16.02;;
31537;SDS011;18147;51.952;6.146;2023-07-24T08:22:02;22.77;;;14.60;;
31537;SDS011;18147;51.952;6.146;2023-07-24T08:24:30;21.08;;;15.25;;
31537;SDS011;18147;51.952;6.146;2023-07-24T08:26:59;21.20;;;15.38;;
31537;SDS011;18147;51.952;6.146;2023-07-24T08:29:25;16.73;;;14.45;;
31537;SDS011;18147;51.952;6.146;2023-07-24T08:31:51;22.13;;;16.77;;
31537;SDS011;18147;51.952;6.146;2023-07-24T08:34:16;20.27;;;15.93;;
31537;SDS011;18147;51.952;6.146;2023-07-24T08:36:42;21.83;;;17.38;;
31537;SDS011;18147;51.952;6.146;2023-07-24T08:39:08;20.80;;;16.98;;
31537;SDS011;18147;51.952;6.146;2023-07-24T08:41:33;23.75;;;19.05;;
31537;SDS011;18147;51.952;6.146;2023-07-24T08:44:00;22.50;;;18.27;;
31537;SDS011;18147;51.952;6.146;2023-07-24T08:46:27;23.05;;;18.48;;
31537;SDS011;18147;51.952;6.146;2023-07-24T08:48:53;25.08;;;18.77;;
31537;SDS011;18147;51.952;6.146;2023-07-24T08:51:19;25.95;;;18.65;;
31537;SDS011;18147;51.952;6.146;2023-07-24T08:53:47;22.73;;;17.02;;
31537;SDS011;18147;51.952;6.146;2023-07-24T08:56:14;23.08;;;17.63;;
31537;SDS011;18147;51.952;6.146;2023-07-24T08:58:40;23.55;;;16.55;;
31537;SDS011;18147;51.952;6.146;2023-07-24T09:01:07;24.13;;;16.48;;
31537;SDS011;18147;51.952;6.146;2023-07-24T09:03:34;20.55;;;16.48;;
31537;SDS011;18147;51.952;6.146;2023-07-24T09:06:00;20.52;;;15.95;;
31537;SDS011;18147;51.952;6.146;2023-07-24T09:08:33;19.80;;;15.65;;
31537;SDS011;18147;51.952;6.146;2023-07-24T09:11:00;17.40;;;14.63;;
31537;SDS011;18147;51.952;6.146;2023-07-24T09:13:27;20.23;;;12.80;;
31537;SDS011;18147;51.952;6.146;2023-07-24T09:15:53;15.90;;;11.90;;
31537;SDS011;18147;51.952;6.146;2023-07-24T09:18:19;13.63;;;10.80;;
31537;SDS011;18147;51.952;6.146;2023-07-24T09:20:45;11.70;;;10.48;;
31537;SDS011;18147;51.952;6.146;2023-07-24T09:23:11;11.90;;;10.25;;
31537;SDS011;18147;51.952;6.146;2023-07-24T09:25:39;11.60;;;9.40;;
31537;SDS011;18147;51.952;6.146;2023-07-24T09:28:11;11.25;;;9.93;;
31537;SDS011;18147;51.952;6.146;2023-07-24T09:30:42;13.35;;;9.73;;
31537;SDS011;18147;51.952;6.146;2023-07-24T09:33:20;10.98;;;9.65;;
31537;SDS011;18147;51.952;6.146;2023-07-24T09:35:56;13.38;;;10.48;;
31537;SDS011;18147;51.952;6.146;2023-07-24T09:38:23;15.07;;;9.32;;
31537;SDS011;18147;51.952;6.146;2023-07-24T09:40:49;11.38;;;9.40;;
31537;SDS011;18147;51.952;6.146;2023-07-24T09:43:19;12.05;;;8.95;;
31537;SDS011;18147;51.952;6.146;2023-07-24T09:45:46;12.85;;;9.10;;
31537;SDS011;18147;51.952;6.146;2023-07-24T09:48:13;11.57;;;9.57;;
31537;SDS011;18147;51.952;6.146;2023-07-24T09:50:44;12.73;;;9.15;;
31537;SDS011;18147;51.952;6.146;2023-07-24T09:53:33;10.15;;;8.20;;
31537;SDS011;18147;51.952;6.146;2023-07-24T09:56:01;9.30;;;8.27;;
31537;SDS011;18147;51.952;6.146;2023-07-24T09:58:35;10.43;;;8.85;;
31537;SDS011;18147;51.952;6.146;2023-07-24T10:01:03;10.80;;;8.82;;
31537;SDS011;18147;51.952;6.146;2023-07-24T10:03:34;10.93;;;8.77;;
31537;SDS011;18147;51.952;6.146;2023-07-24T10:06:01;13.30;;;9.10;;
31537;SDS011;18147;51.952;6.146;2023-07-24T10:08:27;9.15;;;8.25;;
31537;SDS011;18147;51.952;6.146;2023-07-24T10:10:53;11.77;;;8.68;;
31537;SDS011;18147;51.952;6.146;2023-07-24T10:13:19;10.60;;;8.52;;
31537;SDS011;18147;51.952;6.146;2023-07-24T10:15:47;12.15;;;9.50;;
31537;SDS011;18147;51.952;6.146;2023-07-24T10:18:14;10.52;;;9.43;;
31537;SDS011;18147;51.952;6.146;2023-07-24T10:20:43;13.82;;;9.50;;
31537;SDS011;18147;51.952;6.146;2023-07-24T10:23:09;11.48;;;8.07;;
31537;SDS011;18147;51.952;6.146;2023-07-24T10:28:10;11.82;;;9.15;;
31537;SDS011;18147;51.952;6.146;2023-07-24T10:30:38;12.23;;;9.35;;
31537;SDS011;18147;51.952;6.146;2023-07-24T10:33:13;11.43;;;10.23;;
31537;SDS011;18147;51.952;6.146;2023-07-24T10:35:44;13.73;;;9.50;;
31537;SDS011;18147;51.952;6.146;2023-07-24T10:38:11;11.88;;;8.60;;
31537;SDS011;18147;51.952;6.146;2023-07-24T10:40:42;12.50;;;9.65;;
31537;SDS011;18147;51.952;6.146;2023-07-24T10:43:10;12.45;;;9.13;;
31537;SDS011;18147;51.952;6.146;2023-07-24T10:45:38;14.30;;;10.13;;
31537;SDS011;18147;51.952;6.146;2023-07-24T10:48:19;11.43;;;8.82;;
31537;SDS011;18147;51.952;6.146;2023-07-24T10:50:47;12.10;;;9.50;;
31537;SDS011;18147;51.952;6.146;2023-07-24T10:53:15;11.70;;;9.23;;
31537;SDS011;18147;51.952;6.146;2023-07-24T10:55:42;12.95;;;9.77;;
31537;SDS011;18147;51.952;6.146;2023-07-24T10:58:09;11.82;;;9.07;;
31537;SDS011;18147;51.952;6.146;2023-07-24T11:00:38;13.30;;;10.07;;
31537;SDS011;18147;51.952;6.146;2023-07-24T11:03:11;12.27;;;9.02;;
31537;SDS011;18147;51.952;6.146;2023-07-24T11:05:43;10.05;;;8.75;;
31537;SDS011;18147;51.952;6.146;2023-07-24T11:08:14;9.15;;;8.27;;
31537;SDS011;18147;51.952;6.146;2023-07-24T11:10:59;10.63;;;9.40;;
31537;SDS011;18147;51.952;6.146;2023-07-24T11:13:27;15.40;;;9.90;;
31537;SDS011;18147;51.952;6.146;2023-07-24T11:15:54;13.88;;;9.40;;
31537;SDS011;18147;51.952;6.146;2023-07-24T11:18:20;15.50;;;10.40;;
31537;SDS011;18147;51.952;6.146;2023-07-24T11:23:14;12.00;;;9.65;;
31537;SDS011;18147;51.952;6.146;2023-07-24T11:25:41;11.10;;;9.52;;
31537;SDS011;18147;51.952;6.146;2023-07-24T11:28:09;11.23;;;10.02;;
31537;SDS011;18147;51.952;6.146;2023-07-24T11:30:38;12.90;;;9.85;;
31537;SDS011;18147;51.952;6.146;2023-07-24T11:33:06;12.77;;;10.10;;
31537;SDS011;18147;51.952;6.146;2023-07-24T11:35:34;13.25;;;10.75;;
31537;SDS011;18147;51.952;6.146;2023-07-24T11:38:00;11.43;;;9.23;;
31537;SDS011;18147;51.952;6.146;2023-07-24T11:40:34;13.43;;;9.23;;
31537;SDS011;18147;51.952;6.146;2023-07-24T11:43:02;11.82;;;10.63;;
31537;SDS011;18147;51.952;6.146;2023-07-24T11:45:29;13.15;;;9.70;;
31537;SDS011;18147;51.952;6.146;2023-07-24T11:47:55;13.10;;;11.60;;
31537;SDS011;18147;51.952;6.146;2023-07-24T11:50:21;15.75;;;9.98;;
31537;SDS011;18147;51.952;6.146;2023-07-24T11:52:49;14.07;;;9.50;;
31537;SDS011;18147;51.952;6.146;2023-07-24T11:55:17;13.55;;;10.63;;
31537;SDS011;18147;51.952;6.146;2023-07-24T11:58:00;12.35;;;10.15;;
31537;SDS011;18147;51.952;6.146;2023-07-24T12:00:27;9.73;;;8.73;;
31537;SDS011;18147;51.952;6.146;2023-07-24T12:03:01;11.40;;;9.68;;
31537;SDS011;18147;51.952;6.146;2023-07-24T12:05:29;11.98;;;9.40;;
31537;SDS011;18147;51.952;6.146;2023-07-24T12:08:02;11.50;;;9.45;;
31537;SDS011;18147;51.952;6.146;2023-07-24T12:10:28;13.93;;;10.77;;
31537;SDS011;18147;51.952;6.146;2023-07-24T12:12:54;13.52;;;9.55;;
31537;SDS011;18147;51.952;6.146;2023-07-24T12:15:23;12.23;;;9.75;;
31537;SDS011;18147;51.952;6.146;2023-07-24T12:17:48;14.05;;;10.18;;
31537;SDS011;18147;51.952;6.146;2023-07-24T12:20:14;11.50;;;10.30;;
31537;SDS011;18147;51.952;6.146;2023-07-24T12:22:40;13.77;;;10.73;;
31537;SDS011;18147;51.952;6.146;2023-07-24T12:25:08;13.95;;;11.90;;
31537;SDS011;18147;51.952;6.146;2023-07-24T12:27:33;13.05;;;10.20;;
31537;SDS011;18147;51.952;6.146;2023-07-24T12:29:59;9.70;;;8.60;;
31537;SDS011;18147;51.952;6.146;2023-07-24T12:32:25;13.40;;;10.25;;
31537;SDS011;18147;51.952;6.146;2023-07-24T12:34:52;10.93;;;8.68;;
31537;SDS011;18147;51.952;6.146;2023-07-24T12:37:18;12.88;;;9.00;;
31537;SDS011;18147;51.952;6.146;2023-07-24T12:39:45;14.98;;;9.30;;
31537;SDS011;18147;51.952;6.146;2023-07-24T12:42:13;10.75;;;9.32;;
31537;SDS011;18147;51.952;6.146;2023-07-24T12:44:42;10.82;;;9.40;;
31537;SDS011;18147;51.952;6.146;2023-07-24T12:47:08;14.75;;;10.40;;
31537;SDS011;18147;51.952;6.146;2023-07-24T12:49:34;14.07;;;8.73;;
31537;SDS011;18147;51.952;6.146;2023-07-24T12:52:00;12.23;;;8.75;;
31537;SDS011;18147;51.952;6.146;2023-07-24T12:54:26;14.50;;;9.68;;
31537;SDS011;18147;51.952;6.146;2023-07-24T12:56:51;11.63;;;9.50;;
31537;SDS011;18147;51.952;6.146;2023-07-24T12:59:17;14.25;;;9.55;;
31537;SDS011;18147;51.952;6.146;2023-07-24T13:01:44;14.63;;;10.45;;
31537;SDS011;18147;51.952;6.146;2023-07-24T13:04:10;13.25;;;10.70;;
31537;SDS011;18147;51.952;6.146;2023-07-24T13:06:38;10.52;;;8.45;;
31537;SDS011;18147;51.952;6.146;2023-07-24T13:09:05;12.10;;;8.75;;
31537;SDS011;18147;51.952;6.146;2023-07-24T13:11:30;14.60;;;9.15;;
31537;SDS011;18147;51.952;6.146;2023-07-24T13:13:56;11.43;;;9.07;;
31537;SDS011;18147;51.952;6.146;2023-07-24T13:16:22;10.70;;;7.68;;
31537;SDS011;18147;51.952;6.146;2023-07-24T13:18:48;13.07;;;8.20;;
31537;SDS011;18147;51.952;6.146;2023-07-24T13:21:15;11.75;;;9.43;;
31537;SDS011;18147;51.952;6.146;2023-07-24T13:23:41;12.85;;;7.85;;
31537;SDS011;18147;51.952;6.146;2023-07-24T13:26:07;10.55;;;7.07;;
31537;SDS011;18147;51.952;6.146;2023-07-24T13:28:37;9.48;;;7.60;;
31537;SDS011;18147;51.952;6.146;2023-07-24T13:31:19;10.98;;;7.40;;
31537;SDS011;18147;51.952;6.146;2023-07-24T13:33:45;10.23;;;7.22;;
31537;SDS011;18147;51.952;6.146;2023-07-24T13:36:11;7.90;;;6.32;;
31537;SDS011;18147;51.952;6.146;2023-07-24T13:38:39;8.60;;;6.10;;
31537;SDS011;18147;51.952;6.146;2023-07-24T13:41:07;8.52;;;7.22;;
31537;SDS011;18147;51.952;6.146;2023-07-24T13:43:34;8.68;;;5.75;;
31537;SDS011;18147;51.952;6.146;2023-07-24T13:46:00;9.80;;;6.00;;
31537;SDS011;18147;51.952;6.146;2023-07-24T13:48:28;9.27;;;5.80;;
31537;SDS011;18147;51.952;6.146;2023-07-24T13:50:54;8.60;;;6.07;;
31537;SDS011;18147;51.952;6.146;2023-07-24T13:53:20;9.55;;;5.57;;
31537;SDS011;18147;51.952;6.146;2023-07-24T13:55:46;9.40;;;5.53;;
31537;SDS011;18147;51.952;6.146;2023-07-24T13:58:12;6.25;;;4.82;;
31537;SDS011;18147;51.952;6.146;2023-07-24T14:00:38;9.75;;;5.72;;
31537;SDS011;18147;51.952;6.146;2023-07-24T14:03:11;9.48;;;5.82;;
31537;SDS011;18147;51.952;6.146;2023-07-24T14:05:43;6.78;;;5.78;;
31537;SDS011;18147;51.952;6.146;2023-07-24T14:08:08;6.78;;;5.53;;
31537;SDS011;18147;51.952;6.146;2023-07-24T14:10:34;6.00;;;5.05;;
31537;SDS011;18147;51.952;6.146;2023-07-24T14:13:00;10.20;;;5.47;;
31537;SDS011;18147;51.952;6.146;2023-07-24T14:15:25;10.32;;;6.13;;
31537;SDS011;18147;51.952;6.146;2023-07-24T14:17:51;8.90;;;6.10;;
31537;SDS011;18147;51.952;6.146;2023-07-24T14:20:17;8.02;;;4.72;;
31537;SDS011;18147;51.952;6.146;2023-07-24T14:22:43;8.60;;;5.63;;
31537;SDS011;18147;51.952;6.146;2023-07-24T14:25:08;10.00;;;6.10;;
31537;SDS011;18147;51.952;6.146;2023-07-24T14:27:34;9.82;;;5.85;;
31537;SDS011;18147;51.952;6.146;2023-07-24T14:30:00;9.20;;;5.15;;
31537;SDS011;18147;51.952;6.146;2023-07-24T14:32:25;7.43;;;4.97;;
31537;SDS011;18147;51.952;6.146;2023-07-24T14:34:51;10.77;;;5.40;;
31537;SDS011;18147;51.952;6.146;2023-07-24T14:37:18;8.23;;;5.45;;
31537;SDS011;18147;51.952;6.146;2023-07-24T14:39:44;8.25;;;5.90;;
31537;SDS011;18147;51.952;6.146;2023-07-24T14:42:10;8.80;;;6.70;;
31537;SDS011;18147;51.952;6.146;2023-07-24T14:44:41;7.13;;;5.73;;
31537;SDS011;18147;51.952;6.146;2023-07-24T14:47:08;9.85;;;5.57;;